Time;durP1;ratioP1;P1;durP2;ratioP2;P2;SDS_P1;SDS_P2;PMS_P1;PMS_P2;Temp;Humidity;BMP_temperature;BMP_pressure;BME280_temperature;BME280_humidity;BME280_pressure;Samples;Min_cycle;Max_cycle;Signal;HPM_P1;HPM_P2
2023/10/28 00:02:07;;;;;;;8.80;5.47;;;;;;;8.69;96.91;99304.03;5074747;28;20191;-70
2023/10/28 00:04:34;;;;;;;9.33;5.40;;;;;;;8.72;97.28;99306.34;5074968;28;20186;-70
2023/10/28 00:07:02;;;;;;;6.53;4.53;;;;;;;8.73;97.19;99302.66;5074811;28;20202;-70
2023/10/28 00:09:28;;;;;;;4.97;4.77;;;;;;;8.75;96.96;99307.81;5074794;28;20260;-70
2023/10/28 00:11:55;;;;;;;5.13;4.83;;;;;;;8.80;97.11;99308.94;5074588;28;20182;-70
2023/10/28 00:14:23;;;;;;;5.27;4.33;;;;;;;8.82;97.20;99306.13;5074514;28;20708;-70
2023/10/28 00:16:49;;;;;;;7.00;4.90;;;;;;;8.86;97.21;99305.59;5074358;28;20272;-70
2023/10/28 00:19:16;;;;;;;7.50;4.87;;;;;;;8.88;97.27;99310.72;5074653;28;20182;-70
2023/10/28 00:21:42;;;;;;;7.03;5.07;;;;;;;8.95;97.15;99309.88;5074635;28;20197;-70
2023/10/28 00:24:10;;;;;;;7.60;4.37;;;;;;;8.96;97.13;99306.19;5074565;28;20190;-70
2023/10/28 00:26:36;;;;;;;3.90;3.80;;;;;;;8.98;97.38;99312.19;5074433;28;20578;-70
2023/10/28 00:29:03;;;;;;;4.80;4.70;;;;;;;9.00;97.38;99304.81;5074438;28;20610;-70
2023/10/28 00:31:31;;;;;;;4.70;4.40;;;;;;;9.04;97.38;99307.97;5074196;28;20183;-70
2023/10/28 00:33:58;;;;;;;4.43;4.30;;;;;;;9.07;97.69;99312.97;5074539;28;20199;-70
2023/10/28 00:36:25;;;;;;;4.63;4.23;;;;;;;9.09;97.29;99310.94;5072746;28;20214;-70
2023/10/28 00:38:52;;;;;;;10.87;5.83;;;;;;;9.10;97.30;99312.59;5074298;28;20586;-70
2023/10/28 00:41:18;;;;;;;5.43;5.10;;;;;;;9.11;97.61;99309.78;5074188;28;20194;-70
2023/10/28 00:43:47;;;;;;;5.57;5.13;;;;;;;9.12;97.44;99310.59;5072731;28;20194;-70
2023/10/28 00:46:14;;;;;;;4.67;4.37;;;;;;;9.15;97.41;99311.06;5073819;28;20222;-70
2023/10/28 00:48:40;;;;;;;6.57;4.67;;;;;;;9.15;97.52;99319.06;5074321;28;20198;-70
2023/10/28 00:51:07;;;;;;;4.23;4.03;;;;;;;9.15;97.59;99316.41;5074316;28;20193;-70
2023/10/28 00:53:33;;;;;;;5.37;4.50;;;;;;;9.17;97.66;99314.38;5074063;28;20240;-70
2023/10/28 00:56:01;;;;;;;4.90;4.50;;;;;;;9.21;97.80;99319.38;5073645;28;20621;-70
2023/10/28 00:58:30;;;;;;;6.30;4.80;;;;;;;9.20;97.46;99318.53;5074036;28;20171;-70
2023/10/28 01:00:58;;;;;;;4.40;4.10;;;;;;;9.22;97.66;99311.19;5073952;28;20167;-70
2023/10/28 01:03:25;;;;;;;7.60;4.60;;;;;;;9.24;97.62;99314.50;5074421;28;20534;-70
2023/10/28 01:05:51;;;;;;;4.83;4.33;;;;;;;9.25;97.78;99310.00;5073524;28;20635;-70
2023/10/28 01:08:18;;;;;;;4.60;4.30;;;;;;;9.26;97.72;99311.66;5072323;28;20241;-70
2023/10/28 01:10:44;;;;;;;4.87;4.57;;;;;;;9.27;97.75;99311.47;5074044;28;20199;-70
2023/10/28 01:13:12;;;;;;;5.77;4.10;;;;;;;9.27;97.80;99308.81;5072251;28;20537;-70
2023/10/28 01:15:39;;;;;;;4.20;3.93;;;;;;;9.27;97.75;99306.16;5073468;28;20715;-70
2023/10/28 01:18:05;;;;;;;4.93;4.63;;;;;;;9.26;97.84;99307.16;5073405;28;20534;-70
2023/10/28 01:20:32;;;;;;;4.97;4.70;;;;;;;9.28;97.91;99306.97;5073400;28;20183;-70
2023/10/28 01:22:59;;;;;;;6.67;6.10;;;;;;;9.29;97.89;99304.16;5072159;28;20198;-70
2023/10/28 01:25:25;;;;;;;7.10;5.00;;;;;;;9.34;98.00;99303.59;5072078;28;20635;-70
2023/10/28 01:27:53;;;;;;;4.93;4.63;;;;;;;9.35;97.89;99297.25;5055374;28;20237;-70
2023/10/28 01:30:19;;;;;;;6.93;4.47;;;;;;;9.36;98.10;99301.59;5073454;28;20210;-70
2023/10/28 01:32:46;;;;;;;4.73;4.00;;;;;;;9.37;98.10;99304.09;5073517;28;20182;-70
2023/10/28 01:35:13;;;;;;;5.70;5.20;;;;;;;9.39;98.10;99311.88;5073176;28;20210;-70
2023/10/28 01:37:40;;;;;;;5.77;5.20;;;;;;;9.40;98.03;99306.38;5073140;28;20198;-70
2023/10/28 01:40:13;;;;;;;4.40;4.00;;;;;;;9.39;97.98;99307.38;5073171;28;20550;-70
2023/10/28 01:42:42;;;;;;;5.90;5.33;;;;;;;9.37;97.98;99314.75;5071947;28;20251;-70
2023/10/28 01:45:10;;;;;;;4.77;4.33;;;;;;;9.36;98.08;99314.94;5073099;28;20190;-70
2023/10/28 01:47:41;;;;;;;4.83;4.60;;;;;;;9.39;97.98;99319.88;5071992;28;20681;-70
2023/10/28 01:50:11;;;;;;;6.20;5.80;;;;;;;9.41;97.88;99317.88;5073341;28;20204;-70
2023/10/28 01:52:39;;;;;;;8.43;5.50;;;;;;;9.36;97.84;99314.94;5073065;28;20186;-70
2023/10/28 01:55:07;;;;;;;5.47;5.07;;;;;;;9.36;97.95;99317.59;5075195;28;20677;-70
2023/10/28 01:57:34;;;;;;;4.77;4.67;;;;;;;9.34;97.97;99324.94;5077121;28;20210;-70
2023/10/28 02:00:05;;;;;;;21.77;5.93;;;;;;;9.34;98.09;99320.41;5075830;28;20193;-70
2023/10/28 02:02:35;;;;;;;5.57;5.23;;;;;;;9.34;97.93;99320.41;5077077;28;20174;-70
2023/10/28 02:05:02;;;;;;;8.07;5.83;;;;;;;9.37;98.03;99325.44;5077498;28;20190;-70
2023/10/28 02:07:29;;;;;;;6.07;4.90;;;;;;;9.38;98.13;99323.56;5076615;28;20245;-71
2023/10/28 02:09:55;;;;;;;5.30;4.87;;;;;;;9.38;98.13;99320.88;5076836;28;20701;-71
2023/10/28 02:12:22;;;;;;;5.23;5.00;;;;;;;9.35;97.96;99326.59;5075626;28;20687;-71
2023/10/28 02:14:48;;;;;;;5.50;5.10;;;;;;;9.34;97.89;99323.09;5075536;28;20244;-70
2023/10/28 02:17:15;;;;;;;4.93;4.50;;;;;;;9.34;97.94;99339.09;5075599;28;20221;-71
2023/10/28 02:19:41;;;;;;;5.23;5.03;;;;;;;9.39;98.00;99336.72;5075455;28;20194;-71
2023/10/28 02:22:10;;;;;;;5.20;4.67;;;;;;;9.45;98.12;99332.53;5075403;28;20224;-71
2023/10/28 02:24:41;;;;;;;4.30;4.00;;;;;;;9.47;97.97;99336.66;5077227;28;20705;-71
2023/10/28 02:27:08;;;;;;;5.27;4.97;;;;;;;9.56;98.22;99332.09;5075264;28;20218;-70
2023/10/28 02:29:37;;;;;;;6.13;3.50;;;;;;;9.62;98.18;99332.22;5076423;28;20678;-70
2023/10/28 02:32:08;;;;;;;3.43;3.20;;;;;;;9.71;98.38;99337.50;5075244;28;20182;-70
2023/10/28 02:34:36;;;;;;;10.83;4.07;;;;;;;9.77;98.31;99340.25;5076475;28;20562;-70
2023/10/28 02:37:05;;;;;;;4.70;3.40;;;;;;;9.81;98.18;99333.53;5076350;28;20689;-71
2023/10/28 02:39:31;;;;;;;4.83;3.47;;;;;;;9.88;98.15;99339.00;5076336;28;20719;-70
2023/10/28 02:41:58;;;;;;;12.63;3.70;;;;;;;9.94;97.93;99338.25;5075265;28;20202;-70
2023/10/28 02:44:24;;;;;;;6.40;3.23;;;;;;;9.94;98.01;99343.59;5075036;28;20252;-70
2023/10/28 02:46:51;;;;;;;6.97;3.83;;;;;;;10.04;97.62;99338.84;5076156;28;20653;-70
2023/10/28 02:49:17;;;;;;;3.90;3.07;;;;;;;10.13;97.37;99340.44;5076353;28;20191;-70
2023/10/28 02:51:44;;;;;;;3.83;3.07;;;;;;;10.07;97.31;99343.81;5074889;28;20198;-70
2023/10/28 02:54:10;;;;;;;6.00;2.80;;;;;;;10.03;97.39;99342.53;5076320;28;20191;-70
2023/10/28 02:56:38;;;;;;;5.30;3.17;;;;;;;9.96;97.53;99334.41;5075962;28;20279;-71
2023/10/28 02:59:08;;;;;;;5.47;3.20;;;;;;;9.95;97.66;99327.41;5076292;28;20183;-71
2023/10/28 03:01:36;;;;;;;5.33;3.50;;;;;;;9.94;97.95;99330.25;5076488;28;20174;-70
2023/10/28 03:04:03;;;;;;;7.73;4.13;;;;;;;9.95;97.75;99332.75;5076151;28;20194;-70
2023/10/28 03:06:30;;;;;;;5.67;3.70;;;;;;;9.95;97.92;99334.59;5074877;28;20202;-71
2023/10/28 03:08:56;;;;;;;4.40;3.03;;;;;;;9.96;98.03;99337.09;5074779;28;20191;-71
2023/10/28 03:11:23;;;;;;;3.23;2.93;;;;;;;9.98;98.18;99331.56;5075955;28;20220;-70
2023/10/28 03:13:49;;;;;;;4.60;3.07;;;;;;;9.97;98.10;99333.38;5076297;28;20182;-70
2023/10/28 03:16:17;;;;;;;3.97;3.77;;;;;;;9.96;98.11;99334.41;5075978;28;20233;-71
2023/10/28 03:18:43;;;;;;;2.97;2.87;;;;;;;9.96;98.16;99329.09;5075858;28;20191;-71
2023/10/28 03:21:09;;;;;;;3.17;3.00;;;;;;;9.97;98.28;99333.38;5075861;28;20178;-71
2023/10/28 03:23:36;;;;;;;3.37;3.17;;;;;;;9.95;98.26;99332.75;5074290;28;20198;-71
2023/10/28 03:26:06;;;;;;;4.17;3.80;;;;;;;9.93;98.17;99328.63;5075671;28;20215;-71
2023/10/28 03:28:32;;;;;;;12.67;3.30;;;;;;;9.94;98.30;99332.94;5075760;28;20666;-71
2023/10/28 03:30:59;;;;;;;2.37;2.27;;;;;;;9.93;98.18;99337.44;5075870;28;20209;-71
2023/10/28 03:33:26;;;;;;;3.10;2.90;;;;;;;9.94;98.01;99339.09;5075919;28;20190;-71
2023/10/28 03:35:56;;;;;;;4.20;3.10;;;;;;;9.93;98.12;99337.44;5075252;28;20209;-71
2023/10/28 03:38:23;;;;;;;4.20;3.80;;;;;;;9.94;98.05;99341.75;5075542;28;20195;-71
2023/10/28 03:40:50;;;;;;;2.97;2.90;;;;;;;9.95;98.13;99335.44;5075508;28;20182;-71
2023/10/28 03:43:17;;;;;;;5.80;3.13;;;;;;;9.93;98.02;99342.78;5075225;28;20225;-71
2023/10/28 03:45:43;;;;;;;3.77;3.27;;;;;;;9.93;97.84;99334.75;5075065;28;20186;-71
2023/10/28 03:48:09;;;;;;;6.27;3.17;;;;;;;9.94;97.99;99338.25;5075649;28;20548;-70
2023/10/28 03:50:36;;;;;;;3.97;3.40;;;;;;;9.94;98.00;99341.75;5075484;28;20202;-70
2023/10/28 03:53:02;;;;;;;6.00;2.97;;;;;;;9.95;97.63;99345.28;5074983;28;20236;-70
2023/10/28 03:55:29;;;;;;;3.97;3.30;;;;;;;9.92;97.55;99341.13;5074921;28;20186;-70
2023/10/28 03:57:55;;;;;;;4.43;2.40;;;;;;;9.90;97.75;99336.97;5075169;28;20191;-70
2023/10/28 04:00:22;;;;;;;2.70;2.60;;;;;;;9.86;97.95;99341.84;5075094;28;20193;-70
2023/10/28 04:02:49;;;;;;;5.03;3.27;;;;;;;9.86;97.83;99341.84;5074811;28;20186;-70
2023/10/28 04:05:17;;;;;;;2.83;2.63;;;;;;;9.85;97.87;99350.03;5074731;28;20213;-70
2023/10/28 04:07:45;;;;;;;3.20;2.93;;;;;;;9.83;97.70;99347.56;5074590;28;20244;-70
2023/10/28 04:10:12;;;;;;;3.03;2.70;;;;;;;9.81;97.71;99348.72;5075105;28;20690;-70
2023/10/28 04:12:39;;;;;;;3.47;3.37;;;;;;;9.83;97.61;99342.22;5074849;28;20266;-70
2023/10/28 04:15:05;;;;;;;4.63;2.83;;;;;;;9.81;97.53;99346.06;5074810;28;20186;-70
2023/10/28 04:17:32;;;;;;;3.07;2.97;;;;;;;9.79;97.52;99340.09;5073951;28;20214;-71
2023/10/28 04:19:59;;;;;;;2.73;2.60;;;;;;;9.83;97.57;99344.88;5074723;28;20171;-70
2023/10/28 04:22:26;;;;;;;3.40;3.17;;;;;;;9.82;97.53;99342.38;5074685;28;20190;-70
2023/10/28 04:24:53;;;;;;;3.20;3.00;;;;;;;9.81;97.75;99341.56;5074364;28;20252;-70
2023/10/28 04:27:19;;;;;;;6.10;3.20;;;;;;;9.77;97.53;99350.09;5074310;28;20210;-70
2023/10/28 04:29:46;;;;;;;4.63;4.30;;;;;;;9.76;97.61;99353.81;5074675;28;20194;-70
2023/10/28 04:32:13;;;;;;;5.47;3.60;;;;;;;9.76;97.54;99346.59;5074783;28;20183;-70
2023/10/28 04:34:39;;;;;;;5.63;3.37;;;;;;;9.77;97.80;99347.44;5074162;28;20225;-70
2023/10/28 04:37:23;;;;;;;7.13;3.40;;;;;;;9.76;97.76;99346.59;5075006;28;20206;-71
2023/10/28 04:39:49;;;;;;;3.60;3.50;;;;;;;9.79;97.59;99345.41;5074598;28;20668;-70
2023/10/28 04:42:16;;;;;;;3.57;3.37;;;;;;;9.81;97.80;99343.38;5074021;28;20186;-70
2023/10/28 04:44:43;;;;;;;3.77;3.57;;;;;;;9.80;97.62;99347.91;5073980;28;20236;-70
2023/10/28 04:47:10;;;;;;;3.67;3.20;;;;;;;9.81;97.55;99348.72;5073849;28;20282;-70
2023/10/28 04:49:37;;;;;;;6.67;3.20;;;;;;;9.82;97.49;99348.56;5074050;28;20274;-70
2023/10/28 04:52:03;;;;;;;4.87;3.47;;;;;;;9.81;97.76;99360.22;5073822;28;20607;-70
2023/10/28 04:54:30;;;;;;;4.20;4.10;;;;;;;9.84;97.46;99351.06;5074297;28;20183;-70
2023/10/28 04:56:58;;;;;;;4.47;4.17;;;;;;;9.82;97.43;99343.22;5073950;28;20206;-70
2023/10/28 04:59:24;;;;;;;5.07;4.73;;;;;;;9.81;97.68;99343.38;5073702;28;20568;-70
2023/10/28 05:01:51;;;;;;;5.03;4.43;;;;;;;9.81;97.61;99346.06;5073766;28;20194;-70
2023/10/28 05:04:18;;;;;;;4.37;4.17;;;;;;;9.83;97.50;99344.06;5073881;28;20549;-70
2023/10/28 05:06:44;;;;;;;3.40;3.40;;;;;;;9.79;97.10;99346.25;5073504;28;20210;-70
2023/10/28 05:09:12;;;;;;;3.90;3.70;;;;;;;9.80;97.20;99347.91;5073541;28;20190;-70
2023/10/28 05:11:42;;;;;;;3.73;3.53;;;;;;;9.81;97.31;99344.22;5073798;28;20218;-70
2023/10/28 05:14:11;;;;;;;4.07;3.87;;;;;;;9.70;97.29;99344.66;5073497;28;20187;-70
2023/10/28 05:16:38;;;;;;;3.50;3.30;;;;;;;9.72;97.06;99339.97;5074059;28;20708;-70
2023/10/28 05:19:05;;;;;;;3.73;3.30;;;;;;;9.74;97.11;99342.47;5073415;28;20215;-70
2023/10/28 05:21:31;;;;;;;3.13;2.87;;;;;;;9.72;97.12;99339.16;5073368;28;20182;-70
2023/10/28 05:23:58;;;;;;;2.90;2.77;;;;;;;9.70;96.97;99342.00;5073381;28;20186;-70
2023/10/28 05:26:24;;;;;;;7.80;3.20;;;;;;;9.69;96.84;99332.31;5073267;28;20213;-70
2023/10/28 05:28:53;;;;;;;4.43;3.83;;;;;;;9.71;96.93;99338.31;5072592;28;20190;-70
2023/10/28 05:31:21;;;;;;;4.03;3.73;;;;;;;9.72;96.72;99339.97;5073247;28;20260;-70
2023/10/28 05:33:47;;;;;;;2.53;2.53;;;;;;;9.73;96.74;99340.78;5073283;28;20677;-70
2023/10/28 05:36:15;;;;;;;5.13;3.30;;;;;;;9.71;96.68;99334.81;5073477;28;20580;-70
2023/10/28 05:38:43;;;;;;;2.57;2.57;;;;;;;9.70;96.60;99336.66;5073188;28;20193;-70
2023/10/28 05:41:09;;;;;;;2.57;2.37;;;;;;;9.67;96.65;99337.03;5071997;28;20650;-70
2023/10/28 05:43:36;;;;;;;3.37;3.17;;;;;;;9.62;96.46;99344.72;5073458;28;20183;-70
2023/10/28 05:46:03;;;;;;;2.97;2.80;;;;;;;9.67;96.48;99336.19;5073291;28;20214;-70
2023/10/28 05:48:30;;;;;;;4.47;3.33;;;;;;;9.66;96.62;99339.88;5073387;28;20179;-70
2023/10/28 05:50:57;;;;;;;2.93;2.83;;;;;;;9.68;96.42;99340.50;5072986;28;20601;-70
2023/10/28 05:53:24;;;;;;;2.97;2.97;;;;;;;9.66;96.70;99338.03;5073612;28;20253;-70
2023/10/28 05:55:51;;;;;;;3.83;3.70;;;;;;;9.64;96.22;99346.19;5072960;28;20217;-70
2023/10/28 05:58:17;;;;;;;8.13;5.40;;;;;;;9.62;96.65;99345.56;5073638;28;20224;-70
2023/10/28 06:00:44;;;;;;;7.50;6.03;;;;;;;9.63;96.48;99349.06;5073273;28;20639;-70
2023/10/28 06:03:12;;;;;;;8.17;7.17;;;;;;;9.64;96.41;99350.69;5072922;28;20658;-70
2023/10/28 06:05:38;;;;;;;8.60;7.50;;;;;;;9.62;96.63;99350.91;5073101;28;20273;-70
2023/10/28 06:08:08;;;;;;;8.00;7.37;;;;;;;9.61;96.73;99348.41;5072908;28;20197;-70
2023/10/28 06:10:37;;;;;;;8.27;7.27;;;;;;;9.60;96.70;99346.75;5073099;28;20276;-70
2023/10/28 06:13:03;;;;;;;7.10;6.63;;;;;;;9.62;96.45;99350.06;5073102;28;20195;-70
2023/10/28 06:15:30;;;;;;;8.20;7.37;;;;;;;9.61;96.61;99356.41;5072667;28;20193;-70
2023/10/28 06:17:57;;;;;;;5.80;5.43;;;;;;;9.61;96.65;99359.06;5073391;28;20615;-70
2023/10/28 06:20:23;;;;;;;4.80;4.70;;;;;;;9.61;96.72;99356.41;5072786;28;20179;-70
2023/10/28 06:22:50;;;;;;;4.30;4.07;;;;;;;9.62;96.64;99364.25;5073285;28;20207;-70
2023/10/28 06:25:16;;;;;;;5.13;4.60;;;;;;;9.64;96.52;99361.38;5072758;28;20186;-70
2023/10/28 06:27:43;;;;;;;6.97;3.73;;;;;;;9.63;96.74;99351.72;5072607;28;20215;-70
2023/10/28 06:30:11;;;;;;;4.40;4.03;;;;;;;9.62;96.60;99358.91;5072873;28;20659;-70
2023/10/28 06:32:38;;;;;;;4.20;3.90;;;;;;;9.63;96.72;99362.41;5072675;28;20175;-70
2023/10/28 06:35:05;;;;;;;4.47;4.33;;;;;;;9.67;96.94;99361.03;5072832;28;20214;-70
2023/10/28 06:37:32;;;;;;;3.57;3.40;;;;;;;9.68;96.87;99361.84;5072879;28;20214;-70
2023/10/28 06:39:59;;;;;;;9.17;4.63;;;;;;;9.70;96.45;99360.69;5073999;28;20186;-70
2023/10/28 06:42:25;;;;;;;5.40;4.40;;;;;;;9.74;96.43;99364.66;5076290;28;20247;-70
2023/10/28 06:44:52;;;;;;;7.90;4.87;;;;;;;9.73;96.37;99362.13;5076785;28;20197;-70
2023/10/28 06:47:20;;;;;;;5.97;5.47;;;;;;;9.76;96.59;99362.59;5076227;28;20236;-70
2023/10/28 06:49:46;;;;;;;5.37;5.07;;;;;;;9.72;96.32;99360.50;5076208;28;20224;-70
2023/10/28 06:52:15;;;;;;;5.73;5.33;;;;;;;9.73;96.50;99370.16;5076097;28;20207;-69
2023/10/28 06:54:41;;;;;;;5.07;4.77;;;;;;;9.72;96.41;99366.66;5076604;28;20216;-69
2023/10/28 06:57:08;;;;;;;4.67;4.43;;;;;;;9.76;96.33;99364.47;5076447;28;20210;-70
2023/10/28 06:59:34;;;;;;;4.70;4.43;;;;;;;9.75;96.34;99374.31;5075982;28;20198;-69
2023/10/28 07:02:01;;;;;;;4.10;3.90;;;;;;;9.77;96.35;99374.13;5075936;28;20219;-69
2023/10/28 07:04:28;;;;;;;3.10;3.00;;;;;;;9.81;96.46;99378.09;5075925;28;20186;-69
2023/10/28 07:06:54;;;;;;;6.43;3.67;;;;;;;9.81;96.17;99376.25;5076056;28;20218;-70
2023/10/28 07:09:21;;;;;;;3.00;2.90;;;;;;;9.76;96.59;99375.94;5076100;28;20194;-70
2023/10/28 07:11:47;;;;;;;3.63;3.43;;;;;;;9.82;96.58;99385.09;5076253;28;20206;-69
2023/10/28 07:14:13;;;;;;;3.87;3.77;;;;;;;9.83;96.40;99379.59;5076232;28;20189;-69
2023/10/28 07:16:41;;;;;;;5.30;2.90;;;;;;;9.87;96.25;99385.38;5075625;28;20211;-70
2023/10/28 07:19:09;;;;;;;3.00;2.90;;;;;;;9.92;96.31;99383.84;5075648;28;20217;-70
2023/10/28 07:21:36;;;;;;;4.67;2.67;;;;;;;9.93;96.12;99379.34;5075544;28;20183;-69
2023/10/28 07:24:04;;;;;;;6.63;2.50;;;;;;;9.95;96.27;99380.81;5075549;28;20770;-69
2023/10/28 07:26:31;;;;;;;2.77;2.77;;;;;;;9.97;96.13;99384.13;5075473;28;20203;-69
2023/10/28 07:28:57;;;;;;;3.07;2.83;;;;;;;10.01;95.82;99377.41;5075421;28;20269;-69
2023/10/28 07:31:24;;;;;;;4.20;2.63;;;;;;;10.05;96.20;99386.75;5075536;28;20210;-69
2023/10/28 07:33:50;;;;;;;2.80;2.70;;;;;;;10.10;95.50;99380.81;5075622;28;20588;-69
2023/10/28 07:36:16;;;;;;;3.80;3.70;;;;;;;10.14;95.75;99384.00;5075540;28;20252;-69
2023/10/28 07:38:43;;;;;;;5.33;5.03;;;;;;;10.17;95.33;99383.66;5075275;28;20197;-69
2023/10/28 07:41:10;;;;;;;11.43;5.07;;;;;;;10.22;95.34;99389.28;5075800;28;20271;-69
2023/10/28 07:43:36;;;;;;;4.73;4.53;;;;;;;10.27;95.22;99386.91;5075948;28;20186;-69
2023/10/28 07:46:03;;;;;;;4.80;4.60;;;;;;;10.30;95.18;99390.03;5075292;28;20225;-70
2023/10/28 07:48:30;;;;;;;3.97;3.77;;;;;;;10.34;95.10;99385.97;5075032;28;20214;-69
2023/10/28 07:50:56;;;;;;;5.33;4.83;;;;;;;10.37;94.79;99390.13;5074612;28;20207;-69
2023/10/28 07:53:23;;;;;;;3.63;3.53;;;;;;;10.35;94.38;99392.16;5075318;28;20214;-69
2023/10/28 07:55:49;;;;;;;4.70;3.53;;;;;;;10.40;94.70;99401.25;5075163;28;20182;-70
2023/10/28 07:58:16;;;;;;;3.70;3.60;;;;;;;10.44;94.72;99397.22;5074933;28;20183;-69
2023/10/28 08:00:42;;;;;;;3.67;3.47;;;;;;;10.49;94.39;99402.00;5075138;28;20186;-69
2023/10/28 08:03:09;;;;;;;4.03;3.73;;;;;;;10.56;94.02;99402.13;5074798;28;20199;-69
2023/10/28 08:05:35;;;;;;;4.47;4.37;;;;;;;10.54;94.26;99405.78;5074560;28;20197;-69
2023/10/28 08:08:03;;;;;;;4.40;2.47;;;;;;;10.57;93.86;99403.75;5075527;28;20568;-69
2023/10/28 08:10:29;;;;;;;2.37;2.37;;;;;;;10.56;93.62;99399.44;5074933;28;20232;-69
2023/10/28 08:13:00;;;;;;;2.47;2.40;;;;;;;10.58;93.90;99406.25;5074837;28;20300;-69
2023/10/28 08:15:29;;;;;;;2.00;1.93;;;;;;;10.61;93.78;99407.75;5074729;28;20187;-70
2023/10/28 08:17:56;;;;;;;2.20;2.20;;;;;;;10.61;93.82;99416.56;5074495;28;20232;-69
2023/10/28 08:20:23;;;;;;;1.80;1.80;;;;;;;10.63;93.75;99414.56;5074477;28;20190;-69
2023/10/28 08:22:50;;;;;;;1.50;1.50;;;;;;;10.66;93.83;99410.66;5074978;28;20186;-69
2023/10/28 08:25:17;;;;;;;3.03;1.73;;;;;;;10.68;93.28;99417.50;5074480;28;20207;-69
2023/10/28 08:27:47;;;;;;;2.63;2.53;;;;;;;10.73;93.53;99416.97;5075242;28;20237;-69
2023/10/28 08:30:16;;;;;;;1.57;1.57;;;;;;;10.79;93.77;99416.19;5074297;28;20190;-69
2023/10/28 08:32:44;;;;;;;2.10;2.00;;;;;;;10.80;93.60;99423.22;5074399;28;20665;-69
2023/10/28 08:35:10;;;;;;;2.23;2.13;;;;;;;10.85;93.34;99427.00;5074383;28;20556;-69
2023/10/28 08:37:37;;;;;;;1.93;1.87;;;;;;;10.87;93.37;99432.16;5074058;28;20297;-69
2023/10/28 08:40:08;;;;;;;2.27;2.10;;;;;;;10.92;93.27;99438.59;5074440;28;20270;-69
2023/10/28 08:42:35;;;;;;;2.20;1.90;;;;;;;10.95;92.96;99440.06;5074268;28;20561;-69
2023/10/28 08:45:03;;;;;;;2.00;1.90;;;;;;;11.01;93.03;99444.69;5074194;28;20179;-69
2023/10/28 08:47:36;;;;;;;1.70;1.37;;;;;;;11.00;92.74;99445.69;5074125;28;20225;-69
2023/10/28 08:50:06;;;;;;;1.70;1.60;;;;;;;10.99;92.90;99447.53;5074114;28;20220;-69
2023/10/28 08:52:36;;;;;;;1.30;1.30;;;;;;;11.07;92.84;99451.16;5073749;28;20222;-69
2023/10/28 08:55:03;;;;;;;1.33;1.30;;;;;;;11.07;93.14;99460.00;5073761;28;20623;-69
2023/10/28 08:57:32;;;;;;;1.30;1.30;;;;;;;11.07;92.58;99462.69;5073612;28;20293;-69
2023/10/28 08:59:58;;;;;;;1.40;1.37;;;;;;;11.05;92.79;99458.50;5073463;28;20187;-69
2023/10/28 09:02:27;;;;;;;1.27;1.27;;;;;;;11.04;93.06;99464.88;5073872;28;20182;-69
2023/10/28 09:04:54;;;;;;;1.27;1.27;;;;;;;11.05;93.19;99463.88;5073578;28;20205;-69
2023/10/28 09:07:20;;;;;;;1.63;1.63;;;;;;;11.03;93.17;99468.59;5073567;28;20205;-68
2023/10/28 09:09:57;;;;;;;1.13;1.13;;;;;;;11.01;93.61;99460.72;5074122;28;20175;-68
2023/10/28 09:12:23;;;;;;;1.90;1.90;;;;;;;10.97;93.75;99473.66;5073909;28;20233;-68
2023/10/28 09:14:50;;;;;;;2.10;2.00;;;;;;;11.00;93.88;99472.44;5073361;28;20255;-68
2023/10/28 09:17:20;;;;;;;1.40;1.40;;;;;;;11.04;93.89;99468.38;5073447;28;20225;-69
2023/10/28 09:19:47;;;;;;;1.80;1.70;;;;;;;11.06;94.51;99471.72;5073685;28;20228;-69
2023/10/28 09:22:14;;;;;;;1.80;1.80;;;;;;;11.10;94.27;99474.84;5073296;28;20528;-69
2023/10/28 09:24:46;;;;;;;5.37;1.83;;;;;;;11.13;94.39;99471.78;5073010;28;20190;-69
2023/10/28 09:27:16;;;;;;;2.70;2.43;;;;;;;11.18;94.08;99483.59;5073092;28;20281;-69
2023/10/28 09:29:43;;;;;;;1.70;1.67;;;;;;;11.21;94.47;99474.34;5073392;28;20232;-69
2023/10/28 09:32:10;;;;;;;2.17;1.37;;;;;;;11.25;94.37;99472.97;5073341;28;20194;-69
2023/10/28 09:34:38;;;;;;;2.53;1.53;;;;;;;11.31;94.22;99482.94;5073244;28;20190;-69
2023/10/28 09:37:09;;;;;;;1.90;1.90;;;;;;;11.35;94.04;99484.22;5072737;28;20819;-69
2023/10/28 09:39:36;;;;;;;1.93;1.93;;;;;;;11.38;93.87;99484.66;5071872;28;20178;-69
2023/10/28 09:42:04;;;;;;;7.30;1.40;;;;;;;11.50;93.19;99489.56;5073004;28;20685;-69
2023/10/28 09:44:31;;;;;;;1.53;1.53;;;;;;;11.47;93.02;99480.03;5072697;28;20178;-69
2023/10/28 09:47:07;;;;;;;2.53;2.53;;;;;;;11.48;93.34;99481.72;5072882;28;20210;-69
2023/10/28 09:49:40;;;;;;;2.53;1.83;;;;;;;11.56;92.80;99491.47;5073193;28;20213;-69
2023/10/28 09:52:07;;;;;;;1.40;1.40;;;;;;;11.57;92.54;99501.16;5072793;28;20198;-69
2023/10/28 09:54:38;;;;;;;3.97;1.73;;;;;;;11.63;92.24;99495.03;5072836;28;20311;-69
2023/10/28 09:57:09;;;;;;;1.57;1.47;;;;;;;11.63;91.96;99492.38;5072828;28;20214;-69
2023/10/28 09:59:38;;;;;;;2.40;2.10;;;;;;;11.63;92.07;99495.03;5072764;28;20181;-69
2023/10/28 10:02:33;;;;;;;1.53;1.43;;;;;;;11.63;91.87;99503.91;5071465;28;20658;-69
2023/10/28 10:05:10;;;;;;;1.80;1.40;;;;;;;11.61;92.06;99494.41;5072844;28;20175;-69
2023/10/28 10:07:37;;;;;;;3.43;3.13;;;;;;;11.62;92.53;99502.28;5072427;28;20213;-69
2023/10/28 10:10:13;;;;;;;2.23;1.73;;;;;;;11.64;91.62;99500.22;5071279;28;20182;-69
2023/10/28 10:12:40;;;;;;;1.63;1.63;;;;;;;11.67;91.68;99501.72;5072255;28;20554;-69
2023/10/28 10:15:19;;;;;;;1.53;1.50;;;;;;;11.77;91.72;99494.22;5074166;28;20190;-69
2023/10/28 10:18:10;;;;;;;6.43;6.13;;;;;;;11.80;91.04;99496.50;5076775;28;20594;-69
2023/10/28 10:20:43;;;;;;;1.80;1.80;;;;;;;11.91;89.87;99504.06;5076501;28;20175;-68
2023/10/28 10:23:10;;;;;;;3.83;1.20;;;;;;;11.91;89.67;99496.03;5076866;28;20167;-69
2023/10/28 10:25:40;;;;;;;1.70;1.30;;;;;;;11.95;88.98;99493.78;5076782;28;20177;-69
2023/10/28 10:28:12;;;;;;;2.50;1.57;;;;;;;11.98;88.99;99491.56;5076637;28;20229;-69
2023/10/28 10:30:40;;;;;;;4.53;1.60;;;;;;;12.02;89.36;99492.84;5076958;28;20580;-69
2023/10/28 10:33:10;;;;;;;1.47;1.47;;;;;;;12.07;89.15;99495.78;5076909;28;20281;-69
2023/10/28 10:35:37;;;;;;;1.40;1.40;;;;;;;12.12;89.27;99490.69;5076702;28;20237;-69
2023/10/28 10:38:06;;;;;;;1.80;1.70;;;;;;;12.16;88.41;99483.09;5076953;28;20175;-69
2023/10/28 10:40:47;;;;;;;1.40;1.40;;;;;;;12.18;88.15;99486.38;5076123;28;20194;-68
2023/10/28 10:43:18;;;;;;;1.47;1.33;;;;;;;12.24;87.91;99482.94;5076560;28;20236;-68
2023/10/28 10:45:45;;;;;;;2.53;2.40;;;;;;;12.27;88.24;99486.06;5076191;28;20266;-68
2023/10/28 10:48:13;;;;;;;1.33;1.33;;;;;;;12.34;88.15;99478.09;5075893;28;20194;-68
2023/10/28 10:50:40;;;;;;;3.17;1.83;;;;;;;12.34;88.36;99483.47;5076071;28;20186;-68
2023/10/28 10:53:06;;;;;;;2.00;1.70;;;;;;;12.42;87.48;99482.50;5075970;28;20203;-68
2023/10/28 10:55:33;;;;;;;1.60;1.60;;;;;;;12.32;87.24;99482.81;5076006;28;20269;-69
2023/10/28 10:58:00;;;;;;;1.80;1.80;;;;;;;12.33;86.59;99477.25;5076291;28;20686;-68
2023/10/28 11:00:26;;;;;;;1.70;1.70;;;;;;;12.38;86.60;99476.69;5075988;28;20197;-68
2023/10/28 11:02:57;;;;;;;1.50;1.50;;;;;;;12.31;87.06;99473.09;5076738;28;20186;-68
2023/10/28 11:05:30;;;;;;;1.70;1.60;;;;;;;12.33;86.66;99469.22;5076178;28;20190;-68
2023/10/28 11:07:57;;;;;;;4.37;1.50;;;;;;;12.35;86.18;99456.44;5076188;28;20574;-68
2023/10/28 11:10:25;;;;;;;2.10;2.00;;;;;;;12.39;85.98;99459.56;5075763;28;20197;-68
2023/10/28 11:12:52;;;;;;;1.90;1.80;;;;;;;12.46;86.69;99451.59;5076004;28;20536;-68
2023/10/28 11:15:22;;;;;;;6.03;2.27;;;;;;;12.52;86.37;99451.63;5075632;28;20639;-69
2023/10/28 11:17:50;;;;;;;1.50;1.50;;;;;;;12.54;85.24;99454.13;5075892;28;20213;-69
2023/10/28 11:20:19;;;;;;;2.87;2.10;;;;;;;12.58;85.29;99444.66;5075497;28;20195;-69
2023/10/28 11:22:47;;;;;;;1.63;1.40;;;;;;;12.61;85.74;99447.78;5076073;28;20189;-69
2023/10/28 11:25:13;;;;;;;2.73;1.60;;;;;;;12.69;85.23;99450.31;5076692;28;20218;-69
2023/10/28 11:27:40;;;;;;;1.60;1.60;;;;;;;12.77;84.90;99452.81;5074233;28;20214;-69
2023/10/28 11:30:07;;;;;;;1.53;1.43;;;;;;;12.86;83.36;99439.28;5075489;28;20186;-68
2023/10/28 11:32:42;;;;;;;1.40;1.40;;;;;;;12.89;83.78;99433.53;5075639;28;20729;-68
2023/10/28 11:35:10;;;;;;;1.83;1.83;;;;;;;12.96;83.39;99439.75;5075443;28;20167;-68
2023/10/28 11:37:36;;;;;;;2.30;2.10;;;;;;;13.00;82.67;99441.00;5075545;28;20230;-68
2023/10/28 11:40:04;;;;;;;2.30;1.77;;;;;;;13.02;83.09;99439.78;5075564;28;20193;-68
2023/10/28 11:42:33;;;;;;;8.83;1.80;;;;;;;13.17;82.70;99429.75;5075248;28;20187;-68